sensor_id;sensor_type;location;lat;lon;timestamp;pressure;altitude;pressure_sealevel;temperature;humidity
64189;BME280;50493;50.970;10.082;2022-08-19T00:02:09;98789.00;;;20.88;48.64
64189;BME280;50493;50.970;10.082;2022-08-19T00:04:35;98794.34;;;21.00;48.56
64189;BME280;50493;50.970;10.082;2022-08-19T00:07:03;98795.53;;;20.96;50.48
64189;BME280;50493;50.970;10.082;2022-08-19T00:09:29;98788.75;;;20.92;48.46
64189;BME280;50493;50.970;10.082;2022-08-19T00:11:55;98785.91;;;20.82;48.79
64189;BME280;50493;50.970;10.082;2022-08-19T00:14:22;98786.03;;;20.80;48.80
64189;BME280;50493;50.970;10.082;2022-08-19T00:16:50;98788.47;;;20.83;48.61
64189;BME280;50493;50.970;10.082;2022-08-19T00:19:19;98793.91;;;21.06;47.97
64189;BME280;50493;50.970;10.082;2022-08-19T00:21:45;98795.31;;;20.99;48.16
64189;BME280;50493;50.970;10.082;2022-08-19T00:24:11;98795.31;;;20.99;48.11
64189;BME280;50493;50.970;10.082;2022-08-19T00:26:38;98797.63;;;21.03;47.85
64189;BME280;50493;50.970;10.082;2022-08-19T00:29:04;98790.97;;;20.98;48.05
64189;BME280;50493;50.970;10.082;2022-08-19T00:31:30;98786.38;;;21.00;47.75
64189;BME280;50493;50.970;10.082;2022-08-19T00:33:57;98783.22;;;20.95;48.05
64189;BME280;50493;50.970;10.082;2022-08-19T00:36:23;98780.34;;;20.98;47.88
64189;BME280;50493;50.970;10.082;2022-08-19T00:38:48;98770.50;;;20.87;48.06
64189;BME280;50493;50.970;10.082;2022-08-19T00:41:15;98770.31;;;20.77;48.27
64189;BME280;50493;50.970;10.082;2022-08-19T00:43:42;98782.47;;;20.68;48.72
64189;BME280;50493;50.970;10.082;2022-08-19T00:46:08;98776.75;;;20.62;48.90
64189;BME280;50493;50.970;10.082;2022-08-19T00:48:34;98774.34;;;20.83;48.32
64189;BME280;50493;50.970;10.082;2022-08-19T00:51:03;98766.09;;;20.75;48.40
64189;BME280;50493;50.970;10.082;2022-08-19T00:53:31;98754.75;;;20.97;47.83
64189;BME280;50493;50.970;10.082;2022-08-19T00:55:59;98747.97;;;20.93;47.57
64189;BME280;50493;50.970;10.082;2022-08-19T00:58:29;98745.34;;;21.04;47.94
64189;BME280;50493;50.970;10.082;2022-08-19T01:00:55;98755.84;;;21.41;52.17
64189;BME280;50493;50.970;10.082;2022-08-19T01:03:21;98764.38;;;21.33;47.33
64189;BME280;50493;50.970;10.082;2022-08-19T01:05:49;98764.19;;;21.12;47.18
64189;BME280;50493;50.970;10.082;2022-08-19T01:08:18;98764.41;;;20.98;47.36
64189;BME280;50493;50.970;10.082;2022-08-19T01:10:47;98755.38;;;21.00;47.50
64189;BME280;50493;50.970;10.082;2022-08-19T01:13:14;98756.06;;;20.78;47.93
64189;BME280;50493;50.970;10.082;2022-08-19T01:15:43;98766.19;;;20.97;47.54
64189;BME280;50493;50.970;10.082;2022-08-19T01:18:12;98761.03;;;21.43;50.50
64189;BME280;50493;50.970;10.082;2022-08-19T01:20:39;98770.03;;;21.29;46.83
64189;BME280;50493;50.970;10.082;2022-08-19T01:23:07;98767.22;;;21.08;47.23
64189;BME280;50493;50.970;10.082;2022-08-19T01:25:38;98763.25;;;21.13;46.93
64189;BME280;50493;50.970;10.082;2022-08-19T01:28:06;98754.97;;;21.29;46.43
64189;BME280;50493;50.970;10.082;2022-08-19T01:30:34;98757.00;;;21.26;46.61
64189;BME280;50493;50.970;10.082;2022-08-19T01:33:00;98755.47;;;21.46;50.45
64189;BME280;50493;50.970;10.082;2022-08-19T01:35:27;98753.63;;;21.24;46.39
64189;BME280;50493;50.970;10.082;2022-08-19T01:37:57;98751.41;;;21.17;46.68
64189;BME280;50493;50.970;10.082;2022-08-19T01:40:27;98749.72;;;21.16;46.61
64189;BME280;50493;50.970;10.082;2022-08-19T01:42:54;98750.72;;;21.27;46.21
64189;BME280;50493;50.970;10.082;2022-08-19T01:45:21;98760.41;;;21.39;51.63
64189;BME280;50493;50.970;10.082;2022-08-19T01:47:47;98751.91;;;21.23;48.03
64189;BME280;50493;50.970;10.082;2022-08-19T01:50:13;98764.97;;;21.26;47.67
64189;BME280;50493;50.970;10.082;2022-08-19T01:52:40;98762.97;;;21.05;46.94
64189;BME280;50493;50.970;10.082;2022-08-19T01:55:09;98767.09;;;21.09;46.73
64189;BME280;50493;50.970;10.082;2022-08-19T01:57:37;98766.91;;;21.24;47.52
64189;BME280;50493;50.970;10.082;2022-08-19T02:00:06;98760.44;;;20.79;47.55
64189;BME280;50493;50.970;10.082;2022-08-19T02:02:33;98757.91;;;21.02;47.37
64189;BME280;50493;50.970;10.082;2022-08-19T02:04:58;98764.44;;;21.09;55.98
64189;BME280;50493;50.970;10.082;2022-08-19T02:07:24;98767.88;;;21.34;58.27
64189;BME280;50493;50.970;10.082;2022-08-19T02:09:49;98759.56;;;21.03;55.64
64189;BME280;50493;50.970;10.082;2022-08-19T02:12:15;98762.72;;;20.97;47.74
64189;BME280;50493;50.970;10.082;2022-08-19T02:14:42;98754.38;;;20.77;48.22
64189;BME280;50493;50.970;10.082;2022-08-19T02:17:09;98738.41;;;20.66;48.38
64189;BME280;50493;50.970;10.082;2022-08-19T02:19:34;98744.84;;;20.75;58.30
64189;BME280;50493;50.970;10.082;2022-08-19T02:22:00;98748.63;;;20.83;48.28
64189;BME280;50493;50.970;10.082;2022-08-19T02:24:25;98750.72;;;20.67;47.63
64189;BME280;50493;50.970;10.082;2022-08-19T02:26:52;98751.03;;;20.86;48.04
64189;BME280;50493;50.970;10.082;2022-08-19T02:29:17;98745.44;;;20.91;47.12
64189;BME280;50493;50.970;10.082;2022-08-19T02:31:44;98743.81;;;21.13;55.38
64189;BME280;50493;50.970;10.082;2022-08-19T02:34:09;98750.22;;;20.62;47.70
64189;BME280;50493;50.970;10.082;2022-08-19T02:36:34;98743.34;;;20.70;48.17
64189;BME280;50493;50.970;10.082;2022-08-19T02:39:00;98742.72;;;20.18;50.53
64189;BME280;50493;50.970;10.082;2022-08-19T02:41:27;98739.13;;;20.19;49.18
64189;BME280;50493;50.970;10.082;2022-08-19T02:43:53;98741.19;;;20.88;61.37
64189;BME280;50493;50.970;10.082;2022-08-19T02:46:22;98741.84;;;20.79;50.64
64189;BME280;50493;50.970;10.082;2022-08-19T02:48:50;98740.28;;;20.88;52.79
64189;BME280;50493;50.970;10.082;2022-08-19T02:51:17;98747.06;;;21.16;56.76
64189;BME280;50493;50.970;10.082;2022-08-19T02:53:43;98754.06;;;21.06;62.02
64189;BME280;50493;50.970;10.082;2022-08-19T02:56:08;98756.19;;;21.01;54.34
64189;BME280;50493;50.970;10.082;2022-08-19T02:58:33;98759.06;;;21.33;55.08
64189;BME280;50493;50.970;10.082;2022-08-19T03:00:59;98755.97;;;21.04;47.63
64189;BME280;50493;50.970;10.082;2022-08-19T03:03:24;98759.47;;;20.80;47.22
64189;BME280;50493;50.970;10.082;2022-08-19T03:05:51;98759.00;;;20.86;47.81
64189;BME280;50493;50.970;10.082;2022-08-19T03:08:17;98755.56;;;20.73;46.90
64189;BME280;50493;50.970;10.082;2022-08-19T03:10:44;98758.06;;;20.63;48.05
64189;BME280;50493;50.970;10.082;2022-08-19T03:13:11;98761.50;;;21.01;52.22
64189;BME280;50493;50.970;10.082;2022-08-19T03:15:39;98753.31;;;20.80;47.20
64189;BME280;50493;50.970;10.082;2022-08-19T03:18:05;98759.47;;;20.80;47.48
64189;BME280;50493;50.970;10.082;2022-08-19T03:20:30;98761.16;;;20.81;48.47
64189;BME280;50493;50.970;10.082;2022-08-19T03:22:57;98758.28;;;20.60;48.14
64189;BME280;50493;50.970;10.082;2022-08-19T03:25:22;98770.91;;;20.94;60.93
64189;BME280;50493;50.970;10.082;2022-08-19T03:27:48;98770.16;;;20.67;48.41
64189;BME280;50493;50.970;10.082;2022-08-19T03:30:14;98765.00;;;20.77;52.46
64189;BME280;50493;50.970;10.082;2022-08-19T03:32:39;98770.63;;;20.61;47.48
64189;BME280;50493;50.970;10.082;2022-08-19T03:35:05;98773.38;;;20.23;48.11
64189;BME280;50493;50.970;10.082;2022-08-19T03:37:31;98774.06;;;20.50;47.38
64189;BME280;50493;50.970;10.082;2022-08-19T03:39:58;98775.53;;;20.54;47.11
64189;BME280;50493;50.970;10.082;2022-08-19T03:42:23;98789.66;;;20.79;50.14
64189;BME280;50493;50.970;10.082;2022-08-19T03:44:50;98786.47;;;20.50;47.37
64189;BME280;50493;50.970;10.082;2022-08-19T03:47:15;98790.97;;;20.98;54.20
64189;BME280;50493;50.970;10.082;2022-08-19T03:49:42;98781.53;;;20.94;57.45
64189;BME280;50493;50.970;10.082;2022-08-19T03:52:07;98778.66;;;20.84;53.11
64189;BME280;50493;50.970;10.082;2022-08-19T03:54:36;98787.09;;;20.78;59.58
64189;BME280;50493;50.970;10.082;2022-08-19T03:57:04;98789.03;;;21.00;49.18
64189;BME280;50493;50.970;10.082;2022-08-19T03:59:33;98782.88;;;20.75;46.52
64189;BME280;50493;50.970;10.082;2022-08-19T04:02:01;98794.81;;;20.94;47.31
64189;BME280;50493;50.970;10.082;2022-08-19T04:04:28;98798.16;;;20.71;46.55
64189;BME280;50493;50.970;10.082;2022-08-19T04:06:54;98806.69;;;21.01;49.49
64189;BME280;50493;50.970;10.082;2022-08-19T04:09:20;98811.75;;;21.04;57.76
64189;BME280;50493;50.970;10.082;2022-08-19T04:11:47;98807.78;;;21.10;59.59
64189;BME280;50493;50.970;10.082;2022-08-19T04:14:16;98807.41;;;21.03;54.05
64189;BME280;50493;50.970;10.082;2022-08-19T04:16:41;98812.13;;;20.99;57.72
64189;BME280;50493;50.970;10.082;2022-08-19T04:19:08;98812.41;;;21.19;58.31
64189;BME280;50493;50.970;10.082;2022-08-19T04:21:34;98815.34;;;21.27;54.01
64189;BME280;50493;50.970;10.082;2022-08-19T04:24:00;98812.44;;;21.54;57.75
64189;BME280;50493;50.970;10.082;2022-08-19T04:26:29;98806.91;;;21.22;48.19
64189;BME280;50493;50.970;10.082;2022-08-19T04:28:57;98809.91;;;21.29;57.02
64189;BME280;50493;50.970;10.082;2022-08-19T04:31:26;98816.94;;;21.30;47.85
64189;BME280;50493;50.970;10.082;2022-08-19T04:33:52;98818.38;;;21.23;45.85
64189;BME280;50493;50.970;10.082;2022-08-19T04:36:21;98817.28;;;21.25;52.69
64189;BME280;50493;50.970;10.082;2022-08-19T04:38:48;98820.50;;;21.53;54.54
64189;BME280;50493;50.970;10.082;2022-08-19T04:41:14;98810.34;;;21.47;52.32
64189;BME280;50493;50.970;10.082;2022-08-19T04:43:58;98804.75;;;21.63;56.25
64189;BME280;50493;50.970;10.082;2022-08-19T04:46:25;98811.19;;;21.47;45.62
64189;BME280;50493;50.970;10.082;2022-08-19T04:48:50;98808.75;;;21.33;46.01
64189;BME280;50493;50.970;10.082;2022-08-19T04:51:16;98799.94;;;21.08;44.99
64189;BME280;50493;50.970;10.082;2022-08-19T04:53:42;98805.34;;;20.95;45.23
64189;BME280;50493;50.970;10.082;2022-08-19T04:56:10;98803.22;;;20.87;45.20
64189;BME280;50493;50.970;10.082;2022-08-19T04:58:37;98799.00;;;20.48;46.18
64189;BME280;50493;50.970;10.082;2022-08-19T05:01:04;98797.91;;;20.87;46.16
64189;BME280;50493;50.970;10.082;2022-08-19T05:03:31;98788.00;;;20.65;46.12
64189;BME280;50493;50.970;10.082;2022-08-19T05:05:59;98794.97;;;20.79;46.83
64189;BME280;50493;50.970;10.082;2022-08-19T05:08:28;98792.97;;;20.70;45.71
64189;BME280;50493;50.970;10.082;2022-08-19T05:10:54;98792.56;;;20.87;45.24
64189;BME280;50493;50.970;10.082;2022-08-19T05:13:19;98799.81;;;20.85;45.46
64189;BME280;50493;50.970;10.082;2022-08-19T05:15:53;98804.50;;;21.66;55.49
64189;BME280;50493;50.970;10.082;2022-08-19T05:18:19;98809.03;;;21.52;46.26
64189;BME280;50493;50.970;10.082;2022-08-19T05:21:07;98802.00;;;21.51;45.10
64189;BME280;50493;50.970;10.082;2022-08-19T05:23:50;98805.59;;;21.28;44.46
64189;BME280;50493;50.970;10.082;2022-08-19T05:26:16;98801.19;;;21.15;44.44
64189;BME280;50493;50.970;10.082;2022-08-19T05:28:41;98796.97;;;20.76;45.25
64189;BME280;50493;50.970;10.082;2022-08-19T05:31:06;98793.25;;;21.27;44.52
64189;BME280;50493;50.970;10.082;2022-08-19T05:33:32;98805.00;;;21.71;55.13
64189;BME280;50493;50.970;10.082;2022-08-19T05:35:57;98805.72;;;22.07;54.72
64189;BME280;50493;50.970;10.082;2022-08-19T05:38:25;98810.81;;;21.99;55.61
64189;BME280;50493;50.970;10.082;2022-08-19T05:40:52;98810.09;;;21.97;57.04
64189;BME280;50493;50.970;10.082;2022-08-19T05:43:17;98805.72;;;22.18;54.94
64189;BME280;50493;50.970;10.082;2022-08-19T05:45:44;98810.69;;;22.46;54.79
64189;BME280;50493;50.970;10.082;2022-08-19T05:48:10;98819.13;;;22.74;52.81
64189;BME280;50493;50.970;10.082;2022-08-19T05:50:40;98828.44;;;22.79;53.79
64189;BME280;50493;50.970;10.082;2022-08-19T05:53:05;98824.78;;;22.80;54.39
64189;BME280;50493;50.970;10.082;2022-08-19T05:55:32;98813.69;;;22.64;53.81
64189;BME280;50493;50.970;10.082;2022-08-19T05:57:57;98828.59;;;22.55;55.31
64189;BME280;50493;50.970;10.082;2022-08-19T06:00:23;98824.81;;;22.69;55.62
64189;BME280;50493;50.970;10.082;2022-08-19T06:02:49;98819.03;;;22.52;54.89
64189;BME280;50493;50.970;10.082;2022-08-19T06:05:16;98822.06;;;22.48;55.29
64189;BME280;50493;50.970;10.082;2022-08-19T06:07:41;98838.06;;;22.36;51.27
64189;BME280;50493;50.970;10.082;2022-08-19T06:10:10;98837.94;;;22.49;55.35
64189;BME280;50493;50.970;10.082;2022-08-19T06:12:38;98834.28;;;22.62;54.18
64189;BME280;50493;50.970;10.082;2022-08-19T06:15:07;98832.75;;;22.80;55.34
64189;BME280;50493;50.970;10.082;2022-08-19T06:17:33;98837.25;;;22.80;55.61
64189;BME280;50493;50.970;10.082;2022-08-19T06:20:00;98842.94;;;22.86;54.65
64189;BME280;50493;50.970;10.082;2022-08-19T06:22:26;98848.78;;;22.69;54.63
64189;BME280;50493;50.970;10.082;2022-08-19T06:24:51;98854.63;;;22.63;49.88
64189;BME280;50493;50.970;10.082;2022-08-19T06:27:18;98862.13;;;22.58;54.20
64189;BME280;50493;50.970;10.082;2022-08-19T06:29:45;98856.16;;;21.97;48.21
64189;BME280;50493;50.970;10.082;2022-08-19T06:32:14;98860.66;;;21.26;49.80
64189;BME280;50493;50.970;10.082;2022-08-19T06:34:40;98852.22;;;21.32;49.33
64189;BME280;50493;50.970;10.082;2022-08-19T06:37:06;98851.34;;;20.59;50.55
64189;BME280;50493;50.970;10.082;2022-08-19T06:39:34;98853.81;;;20.73;50.10
64189;BME280;50493;50.970;10.082;2022-08-19T06:42:01;98855.69;;;21.21;51.75
64189;BME280;50493;50.970;10.082;2022-08-19T06:44:29;98862.75;;;21.09;48.65
64189;BME280;50493;50.970;10.082;2022-08-19T06:47:01;98871.69;;;21.68;49.14
64189;BME280;50493;50.970;10.082;2022-08-19T06:49:27;98889.25;;;21.46;47.83
64189;BME280;50493;50.970;10.082;2022-08-19T06:51:57;98893.41;;;21.97;47.56
64189;BME280;50493;50.970;10.082;2022-08-19T06:54:24;98891.78;;;22.42;50.09
64189;BME280;50493;50.970;10.082;2022-08-19T06:56:49;98899.06;;;22.51;45.16
64189;BME280;50493;50.970;10.082;2022-08-19T06:59:17;98901.84;;;22.61;49.92
64189;BME280;50493;50.970;10.082;2022-08-19T07:01:45;98905.47;;;22.60;52.05
64189;BME280;50493;50.970;10.082;2022-08-19T07:04:14;98903.03;;;22.34;45.97
64189;BME280;50493;50.970;10.082;2022-08-19T07:06:42;98906.34;;;21.91;45.36
64189;BME280;50493;50.970;10.082;2022-08-19T07:09:09;98908.03;;;21.80;45.15
64189;BME280;50493;50.970;10.082;2022-08-19T07:11:34;98909.75;;;22.04;44.49
64189;BME280;50493;50.970;10.082;2022-08-19T07:14:00;98919.34;;;21.71;45.47
64189;BME280;50493;50.970;10.082;2022-08-19T07:16:26;98915.81;;;22.06;45.44
64189;BME280;50493;50.970;10.082;2022-08-19T07:18:52;98915.38;;;21.52;45.83
64189;BME280;50493;50.970;10.082;2022-08-19T07:21:22;98914.75;;;21.49;46.51
64189;BME280;50493;50.970;10.082;2022-08-19T07:23:49;98906.56;;;21.76;45.51
64189;BME280;50493;50.970;10.082;2022-08-19T07:26:18;98915.44;;;21.39;46.47
64189;BME280;50493;50.970;10.082;2022-08-19T07:28:45;98919.06;;;22.10;48.93
64189;BME280;50493;50.970;10.082;2022-08-19T07:31:11;98920.81;;;21.75;45.47
64189;BME280;50493;50.970;10.082;2022-08-19T07:33:37;98921.88;;;21.00;47.76
64189;BME280;50493;50.970;10.082;2022-08-19T07:36:04;98917.53;;;20.99;48.16
64189;BME280;50493;50.970;10.082;2022-08-19T07:38:32;98916.97;;;21.31;47.06
64189;BME280;50493;50.970;10.082;2022-08-19T07:40:57;98912.25;;;20.73;48.10
64189;BME280;50493;50.970;10.082;2022-08-19T07:43:23;98913.13;;;20.61;48.73
64189;BME280;50493;50.970;10.082;2022-08-19T07:45:50;98912.28;;;21.10;47.44
64189;BME280;50493;50.970;10.082;2022-08-19T07:48:15;98913.88;;;21.13;47.14
64189;BME280;50493;50.970;10.082;2022-08-19T07:50:41;98916.41;;;21.14;46.90
64189;BME280;50493;50.970;10.082;2022-08-19T07:53:06;98927.53;;;20.95;48.54
64189;BME280;50493;50.970;10.082;2022-08-19T07:55:33;98928.84;;;20.90;47.73
64189;BME280;50493;50.970;10.082;2022-08-19T07:57:59;98928.97;;;21.12;46.96
64189;BME280;50493;50.970;10.082;2022-08-19T08:00:25;98924.41;;;21.38;46.48
64189;BME280;50493;50.970;10.082;2022-08-19T08:02:51;98935.47;;;21.81;47.71
64189;BME280;50493;50.970;10.082;2022-08-19T08:05:16;98930.97;;;21.70;46.00
64189;BME280;50493;50.970;10.082;2022-08-19T08:08:01;98944.53;;;20.93;47.50
64189;BME280;50493;50.970;10.082;2022-08-19T08:10:46;98948.38;;;20.76;48.07
64189;BME280;50493;50.970;10.082;2022-08-19T08:13:11;98949.47;;;20.60;48.49
64189;BME280;50493;50.970;10.082;2022-08-19T08:15:37;98955.59;;;20.61;48.65
64189;BME280;50493;50.970;10.082;2022-08-19T08:18:03;98952.75;;;20.64;48.44
64189;BME280;50493;50.970;10.082;2022-08-19T08:20:29;98959.03;;;20.63;49.00
64189;BME280;50493;50.970;10.082;2022-08-19T08:22:55;98963.88;;;20.69;48.57
64189;BME280;50493;50.970;10.082;2022-08-19T08:25:38;98962.91;;;20.96;47.88
64189;BME280;50493;50.970;10.082;2022-08-19T08:28:05;98971.22;;;20.52;48.87
64189;BME280;50493;50.970;10.082;2022-08-19T08:30:34;98970.28;;;20.28;49.42
64189;BME280;50493;50.970;10.082;2022-08-19T08:33:01;98965.63;;;20.44;49.13
64189;BME280;50493;50.970;10.082;2022-08-19T08:35:26;98972.50;;;20.60;49.04
64189;BME280;50493;50.970;10.082;2022-08-19T08:37:53;98969.66;;;20.63;48.55
64189;BME280;50493;50.970;10.082;2022-08-19T08:40:22;98969.66;;;20.63;48.61
64189;BME280;50493;50.970;10.082;2022-08-19T08:42:51;98970.91;;;20.44;49.01
64189;BME280;50493;50.970;10.082;2022-08-19T08:45:22;98968.56;;;20.52;48.99
64189;BME280;50493;50.970;10.082;2022-08-19T08:47:50;98972.84;;;20.68;48.51
64189;BME280;50493;50.970;10.082;2022-08-19T08:50:20;98978.97;;;20.55;48.87
64189;BME280;50493;50.970;10.082;2022-08-19T08:52:50;98980.03;;;21.04;47.71
64189;BME280;50493;50.970;10.082;2022-08-19T08:55:19;98973.94;;;21.39;49.12
64189;BME280;50493;50.970;10.082;2022-08-19T08:57:52;98972.31;;;21.74;45.59
64189;BME280;50493;50.970;10.082;2022-08-19T09:00:23;98975.66;;;21.65;46.45
64189;BME280;50493;50.970;10.082;2022-08-19T09:02:52;98974.31;;;21.46;46.86
64189;BME280;50493;50.970;10.082;2022-08-19T09:05:18;98978.59;;;21.73;46.37
64189;BME280;50493;50.970;10.082;2022-08-19T09:07:49;98977.19;;;21.19;47.82
64189;BME280;50493;50.970;10.082;2022-08-19T09:10:21;98973.19;;;21.13;47.54
64189;BME280;50493;50.970;10.082;2022-08-19T09:12:55;98981.25;;;21.12;47.77
64189;BME280;50493;50.970;10.082;2022-08-19T09:15:29;98980.25;;;20.88;48.42
64189;BME280;50493;50.970;10.082;2022-08-19T09:17:59;98971.09;;;21.54;47.09
64189;BME280;50493;50.970;10.082;2022-08-19T09:20:26;98978.63;;;21.36;48.00
64189;BME280;50493;50.970;10.082;2022-08-19T09:22:52;98974.78;;;21.40;47.50
64189;BME280;50493;50.970;10.082;2022-08-19T09:27:51;98984.53;;;21.52;47.00
64189;BME280;50493;50.970;10.082;2022-08-19T09:30:21;98987.34;;;21.38;47.18
64189;BME280;50493;50.970;10.082;2022-08-19T09:32:48;98997.00;;;21.39;47.85
64189;BME280;50493;50.970;10.082;2022-08-19T09:35:14;98991.31;;;21.57;46.63
64189;BME280;50493;50.970;10.082;2022-08-19T09:37:40;98986.50;;;22.21;47.94
64189;BME280;50493;50.970;10.082;2022-08-19T09:40:07;98989.00;;;22.70;45.79
64189;BME280;50493;50.970;10.082;2022-08-19T09:42:32;98991.00;;;23.34;45.32
64189;BME280;50493;50.970;10.082;2022-08-19T09:44:59;98996.50;;;22.76;43.58
64189;BME280;50493;50.970;10.082;2022-08-19T09:47:24;98993.59;;;22.91;43.75
64189;BME280;50493;50.970;10.082;2022-08-19T09:49:51;98983.34;;;23.52;43.54
64189;BME280;50493;50.970;10.082;2022-08-19T09:52:16;98986.19;;;23.28;42.49
64189;BME280;50493;50.970;10.082;2022-08-19T09:54:43;98986.34;;;22.93;43.10
64189;BME280;50493;50.970;10.082;2022-08-19T09:57:08;98973.47;;;22.98;44.89
64189;BME280;50493;50.970;10.082;2022-08-19T09:59:34;98973.84;;;23.71;44.23
64189;BME280;50493;50.970;10.082;2022-08-19T10:02:00;98967.06;;;23.00;43.87
64189;BME280;50493;50.970;10.082;2022-08-19T10:04:25;98967.31;;;23.09;43.74
64189;BME280;50493;50.970;10.082;2022-08-19T10:07:12;98968.09;;;23.43;43.04
64189;BME280;50493;50.970;10.082;2022-08-19T10:09:38;98973.22;;;23.23;43.48
64189;BME280;50493;50.970;10.082;2022-08-19T10:12:04;98979.81;;;22.97;44.02
64189;BME280;50493;50.970;10.082;2022-08-19T10:14:29;98980.78;;;23.18;44.19
64189;BME280;50493;50.970;10.082;2022-08-19T10:16:55;98973.88;;;22.59;44.84
64189;BME280;50493;50.970;10.082;2022-08-19T10:19:21;98966.72;;;22.48;45.28
64189;BME280;50493;50.970;10.082;2022-08-19T10:21:47;98959.56;;;22.83;47.27
64189;BME280;50493;50.970;10.082;2022-08-19T10:24:14;98965.16;;;24.11;42.10
64189;BME280;50493;50.970;10.082;2022-08-19T10:26:40;98965.16;;;23.58;43.09
64189;BME280;50493;50.970;10.082;2022-08-19T10:29:11;98951.53;;;24.14;41.57
64189;BME280;50493;50.970;10.082;2022-08-19T10:31:37;98953.00;;;24.18;41.58
64189;BME280;50493;50.970;10.082;2022-08-19T10:34:03;98955.97;;;24.04;42.36
64189;BME280;50493;50.970;10.082;2022-08-19T10:36:31;98960.38;;;24.36;41.52
64189;BME280;50493;50.970;10.082;2022-08-19T10:39:00;98951.47;;;25.28;39.44
64189;BME280;50493;50.970;10.082;2022-08-19T10:41:30;98935.28;;;25.39;39.36
64189;BME280;50493;50.970;10.082;2022-08-19T10:43:59;98946.81;;;25.20;42.67
64189;BME280;50493;50.970;10.082;2022-08-19T10:46:26;98944.75;;;25.63;39.45
64189;BME280;50493;50.970;10.082;2022-08-19T10:48:53;98940.50;;;25.31;40.12
64189;BME280;50493;50.970;10.082;2022-08-19T10:51:19;98943.03;;;25.13;40.24
64189;BME280;50493;50.970;10.082;2022-08-19T10:54:04;98934.41;;;24.69;41.07
64189;BME280;50493;50.970;10.082;2022-08-19T10:56:32;98935.34;;;24.58;41.24
64189;BME280;50493;50.970;10.082;2022-08-19T10:59:17;98929.41;;;24.95;40.49
64189;BME280;50493;50.970;10.082;2022-08-19T11:01:44;98919.25;;;25.20;39.88
64189;BME280;50493;50.970;10.082;2022-08-19T11:04:11;98920.13;;;24.89;40.33
64189;BME280;50493;50.970;10.082;2022-08-19T11:06:39;98913.19;;;24.77;40.80
64189;BME280;50493;50.970;10.082;2022-08-19T11:09:07;98914.00;;;25.18;40.26
64189;BME280;50493;50.970;10.082;2022-08-19T11:11:34;98909.69;;;25.76;39.88
64189;BME280;50493;50.970;10.082;2022-08-19T11:14:06;98912.34;;;25.86;39.34
64189;BME280;50493;50.970;10.082;2022-08-19T11:16:31;98907.88;;;26.71;37.28
64189;BME280;50493;50.970;10.082;2022-08-19T11:18:58;98910.72;;;26.22;38.52
64189;BME280;50493;50.970;10.082;2022-08-19T11:21:26;98910.31;;;28.53;34.95
64189;BME280;50493;50.970;10.082;2022-08-19T11:23:54;98908.50;;;29.05;32.31
64189;BME280;50493;50.970;10.082;2022-08-19T11:26:21;98909.59;;;29.62;32.72
64189;BME280;50493;50.970;10.082;2022-08-19T11:28:49;98914.25;;;27.88;35.08
64189;BME280;50493;50.970;10.082;2022-08-19T11:31:20;98916.84;;;26.80;36.83
64189;BME280;50493;50.970;10.082;2022-08-19T11:33:46;98917.16;;;25.82;37.45
64189;BME280;50493;50.970;10.082;2022-08-19T11:36:12;98917.69;;;25.17;39.24
64189;BME280;50493;50.970;10.082;2022-08-19T11:38:37;98910.16;;;26.66;36.82
64189;BME280;50493;50.970;10.082;2022-08-19T11:41:05;98908.31;;;27.59;34.06
64189;BME280;50493;50.970;10.082;2022-08-19T11:43:31;98907.25;;;27.96;35.10
64189;BME280;50493;50.970;10.082;2022-08-19T11:45:58;98909.19;;;27.13;36.04
64189;BME280;50493;50.970;10.082;2022-08-19T11:48:25;98899.72;;;26.63;37.05
64189;BME280;50493;50.970;10.082;2022-08-19T11:50:51;98904.34;;;26.43;37.74
64189;BME280;50493;50.970;10.082;2022-08-19T11:53:18;98905.47;;;26.40;38.39
64189;BME280;50493;50.970;10.082;2022-08-19T11:55:45;98909.97;;;26.50;38.58
64189;BME280;50493;50.970;10.082;2022-08-19T11:58:11;98906.19;;;26.70;38.20
64189;BME280;50493;50.970;10.082;2022-08-19T12:00:37;98901.38;;;27.02;37.96
64189;BME280;50493;50.970;10.082;2022-08-19T12:03:04;98887.72;;;27.13;37.73
64189;BME280;50493;50.970;10.082;2022-08-19T12:05:30;98887.13;;;28.00;34.53
64189;BME280;50493;50.970;10.082;2022-08-19T12:07:56;98874.34;;;28.54;34.35
64189;BME280;50493;50.970;10.082;2022-08-19T12:10:21;98882.03;;;28.15;34.41
64189;BME280;50493;50.970;10.082;2022-08-19T12:12:47;98888.72;;;27.84;36.55
64189;BME280;50493;50.970;10.082;2022-08-19T12:15:13;98890.81;;;27.00;38.95
64189;BME280;50493;50.970;10.082;2022-08-19T12:17:39;98892.44;;;26.55;39.75
64189;BME280;50493;50.970;10.082;2022-08-19T12:20:09;98885.22;;;27.12;37.97
64189;BME280;50493;50.970;10.082;2022-08-19T12:22:35;98890.78;;;27.46;37.01
64189;BME280;50493;50.970;10.082;2022-08-19T12:25:01;98875.72;;;27.53;37.36
64189;BME280;50493;50.970;10.082;2022-08-19T12:27:27;98884.22;;;26.85;39.54
64189;BME280;50493;50.970;10.082;2022-08-19T12:29:52;98886.19;;;26.65;39.49
64189;BME280;50493;50.970;10.082;2022-08-19T12:32:17;98886.19;;;26.65;40.32
64189;BME280;50493;50.970;10.082;2022-08-19T12:34:43;98878.50;;;26.70;39.55
64189;BME280;50493;50.970;10.082;2022-08-19T12:37:10;98876.75;;;26.88;39.42
64189;BME280;50493;50.970;10.082;2022-08-19T12:39:38;98868.47;;;27.00;39.11
64189;BME280;50493;50.970;10.082;2022-08-19T12:42:05;98867.03;;;27.41;37.90
64189;BME280;50493;50.970;10.082;2022-08-19T12:44:31;98863.16;;;28.67;32.04
64189;BME280;50493;50.970;10.082;2022-08-19T12:46:57;98852.22;;;28.61;35.70
64189;BME280;50493;50.970;10.082;2022-08-19T12:49:23;98852.56;;;28.23;36.78
64189;BME280;50493;50.970;10.082;2022-08-19T12:51:50;98845.44;;;27.87;37.46
64189;BME280;50493;50.970;10.082;2022-08-19T12:54:16;98853.97;;;28.09;37.53